createdAt,value
2022-10-11T00:00:23.425Z,85.58
2022-10-11T00:02:55.326Z,85.50
2022-10-11T00:05:39.314Z,85.34
2022-10-11T00:08:22.424Z,85.24
2022-10-11T00:11:07.202Z,85.19
2022-10-11T00:13:52.828Z,85.24
2022-10-11T00:16:35.890Z,85.28
2022-10-11T00:19:18.905Z,85.47
2022-10-11T00:22:02.114Z,85.40
2022-10-11T00:24:44.938Z,85.51
2022-10-11T00:27:29.894Z,85.43
2022-10-11T00:30:13.010Z,85.70
2022-10-11T00:32:55.888Z,85.65
2022-10-11T00:35:41.600Z,85.60
2022-10-11T00:38:24.741Z,85.92
2022-10-11T00:41:07.986Z,85.70
2022-10-11T00:44:13.806Z,85.73
2022-10-11T00:47:06.379Z,85.74
2022-10-11T00:49:59.625Z,85.67
2022-10-11T00:52:46.293Z,85.58
2022-10-11T00:55:33.000Z,85.68
2022-10-11T00:58:17.933Z,85.49
2022-10-11T01:01:03.733Z,85.69
2022-10-11T01:03:46.836Z,85.75
2022-10-11T01:06:31.164Z,85.83
2022-10-11T01:09:16.009Z,85.59
2022-10-11T01:12:00.078Z,85.54
2022-10-11T01:15:07.706Z,85.53
2022-10-11T01:18:08.033Z,85.86
2022-10-11T01:21:11.839Z,85.65
2022-10-11T01:24:08.774Z,85.53
2022-10-11T01:27:48.690Z,85.45
2022-10-11T01:30:34.489Z,85.33
2022-10-11T01:33:38.480Z,85.67
2022-10-11T01:36:33.918Z,85.62
2022-10-11T01:39:20.866Z,85.42
2022-10-11T01:42:06.595Z,85.41
2022-10-11T01:44:49.967Z,85.54
2022-10-11T01:47:32.164Z,85.54
2022-10-11T01:50:36.649Z,85.67
2022-10-11T01:53:35.844Z,85.89
2022-10-11T01:56:48.574Z,85.82
2022-10-11T01:59:51.347Z,85.44
2022-10-11T02:03:04.886Z,85.44
2022-10-11T02:05:56.536Z,85.45
2022-10-11T02:09:08.283Z,85.81
2022-10-11T02:11:57.172Z,85.69
2022-10-11T02:14:43.593Z,85.45
2022-10-11T02:17:33.553Z,85.51
2022-10-11T02:20:20.933Z,85.73
2022-10-11T02:23:09.326Z,85.54
2022-10-11T02:25:54.977Z,85.67
2022-10-11T02:28:41.978Z,85.47
2022-10-11T02:31:26.640Z,85.52
2022-10-11T02:34:15.431Z,85.69
2022-10-11T02:37:06.443Z,85.50
2022-10-11T02:39:56.598Z,85.71
2022-10-11T02:42:46.425Z,85.64
2022-10-11T02:45:36.390Z,85.74
2022-10-11T02:48:21.679Z,85.45
2022-10-11T02:51:06.156Z,85.58
2022-10-11T02:53:50.663Z,85.49
2022-10-11T02:56:33.066Z,85.41
2022-10-11T02:59:18.314Z,85.48
2022-10-11T03:02:00.762Z,85.39
2022-10-11T03:04:43.741Z,85.59
2022-10-11T03:07:26.716Z,85.47
2022-10-11T03:10:12.474Z,85.82
2022-10-11T03:12:58.010Z,85.81
2022-10-11T03:15:42.518Z,85.66
2022-10-11T03:18:25.156Z,85.73
2022-10-11T03:21:10.193Z,86.12
2022-10-11T03:23:52.772Z,85.87
2022-10-11T03:26:35.831Z,85.77
2022-10-11T03:29:20.853Z,85.62
2022-10-11T03:32:05.567Z,85.67
2022-10-11T03:34:48.125Z,85.64
2022-10-11T03:37:33.061Z,85.83
2022-10-11T03:40:17.634Z,85.75
2022-10-11T03:43:00.260Z,85.80
2022-10-11T03:45:43.368Z,85.91
2022-10-11T03:48:28.251Z,86.02
2022-10-11T03:51:13.192Z,85.85
2022-10-11T03:53:57.760Z,85.81
2022-10-11T03:56:40.085Z,85.51
2022-10-11T03:59:25.271Z,85.59
2022-10-11T04:02:10.126Z,85.67
2022-10-11T04:04:55.891Z,85.55
2022-10-11T04:07:41.213Z,85.46
2022-10-11T04:10:24.841Z,85.59
2022-10-11T04:13:07.862Z,85.79
2022-10-11T04:15:52.727Z,85.86
2022-10-11T04:18:37.433Z,85.78
2022-10-11T04:21:19.987Z,86.14
2022-10-11T04:24:05.159Z,86.08
2022-10-11T04:26:47.554Z,86.27
2022-10-11T04:29:32.983Z,86.18
2022-10-11T04:32:17.347Z,86.30
2022-10-11T04:34:59.927Z,86.24
2022-10-11T04:37:42.873Z,86.28
2022-10-11T04:40:25.837Z,86.14
2022-10-11T04:43:10.911Z,86.08
2022-10-11T04:45:55.686Z,86.00
2022-10-11T04:48:40.239Z,86.05
2022-10-11T04:51:25.138Z,85.96
2022-10-11T04:54:07.307Z,86.00
2022-10-11T04:56:50.443Z,86.07
2022-10-11T04:59:35.369Z,85.99
2022-10-11T05:02:20.217Z,86.04
2022-10-11T05:05:04.821Z,86.50
2022-10-11T05:07:47.201Z,86.39
2022-10-11T05:10:33.109Z,86.27
2022-10-11T05:13:16.360Z,86.33
2022-10-11T05:15:59.460Z,86.38
2022-10-11T05:18:44.573Z,86.20
2022-10-11T05:21:28.877Z,86.39
2022-10-11T05:24:11.616Z,86.25
2022-10-11T05:27:00.893Z,85.98
2022-10-11T05:29:45.765Z,85.98
2022-10-11T05:32:30.761Z,85.99
2022-10-11T05:35:15.479Z,85.96
2022-10-11T05:37:57.907Z,86.14
2022-10-11T05:40:40.791Z,85.98
2022-10-11T05:43:24.027Z,85.82
2022-10-11T05:46:09.175Z,86.01
2022-10-11T05:48:53.063Z,85.86
2022-10-11T05:51:38.086Z,86.15
2022-10-11T05:54:22.753Z,86.03
2022-10-11T05:57:07.352Z,86.16
2022-10-11T05:59:50.168Z,86.02
2022-10-11T06:02:35.252Z,86.35
2022-10-11T06:05:18.036Z,86.26
2022-10-11T06:08:00.842Z,86.00
2022-10-11T06:10:44.778Z,86.10
2022-10-11T06:13:28.398Z,86.09
2022-10-11T06:16:27.705Z,86.18
2022-10-11T06:19:32.766Z,85.99
2022-10-11T06:22:46.503Z,85.89
2022-10-11T06:25:42.698Z,85.87
2022-10-11T06:28:58.842Z,85.38
2022-10-11T06:31:59.939Z,85.06
2022-10-11T06:35:03.428Z,84.81
2022-10-11T06:38:03.199Z,84.70
2022-10-11T06:41:18.205Z,84.30
2022-10-11T06:44:18.175Z,84.18
2022-10-11T06:47:16.238Z,84.26
2022-10-11T06:50:40.625Z,84.06
2022-10-11T06:53:40.801Z,84.25
2022-10-11T06:56:39.206Z,84.40
2022-10-11T06:59:37.872Z,84.12
2022-10-11T07:02:41.267Z,83.97
2022-10-11T07:05:40.620Z,83.99
2022-10-11T07:08:42.910Z,84.23
2022-10-11T07:11:39.854Z,83.80
2022-10-11T07:14:45.230Z,83.75
2022-10-11T07:17:42.724Z,83.52
2022-10-11T07:20:43.705Z,83.30
2022-10-11T07:23:52.735Z,83.03
2022-10-11T07:26:52.306Z,82.76
2022-10-11T07:29:52.018Z,82.81
2022-10-11T07:32:52.558Z,82.54
2022-10-11T07:35:50.207Z,82.55
2022-10-11T07:38:54.791Z,82.18
2022-10-11T07:41:58.722Z,82.18
2022-10-11T07:44:58.352Z,81.76
2022-10-11T07:47:58.326Z,81.47
2022-10-11T07:51:06.132Z,81.21
2022-10-11T07:54:20.002Z,81.33
2022-10-11T07:57:21.026Z,81.15
2022-10-11T08:00:20.678Z,80.51
2022-10-11T08:03:21.265Z,79.48
2022-10-11T08:06:21.567Z,79.39
2022-10-11T08:09:24.169Z,79.44
2022-10-11T08:12:24.594Z,79.33
2022-10-11T08:15:26.839Z,78.73
2022-10-11T08:18:29.439Z,78.74
2022-10-11T08:21:31.055Z,78.52
2022-10-11T08:24:43.250Z,78.53
2022-10-11T08:27:41.951Z,78.42
2022-10-11T08:30:40.954Z,78.01
2022-10-11T08:33:43.488Z,77.58
2022-10-11T08:36:46.139Z,77.81
2022-10-11T08:39:45.090Z,77.24
2022-10-11T08:42:48.365Z,76.31
2022-10-11T08:45:50.904Z,75.68
2022-10-11T08:48:32.727Z,75.67
2022-10-11T08:51:12.519Z,75.60
2022-10-11T08:54:01.380Z,75.04
2022-10-11T08:56:39.932Z,75.27
2022-10-11T08:59:11.890Z,75.71
2022-10-11T09:01:47.676Z,75.12
2022-10-11T09:04:19.810Z,74.90
2022-10-11T09:07:19.082Z,73.56
2022-10-11T09:10:11.462Z,73.76
2022-10-11T09:13:04.406Z,73.33
2022-10-11T09:15:49.708Z,73.53
2022-10-11T09:18:27.524Z,73.99
2022-10-11T09:21:12.040Z,73.48
2022-10-11T09:24:02.158Z,73.37
2022-10-11T09:26:56.125Z,72.94
2022-10-11T09:29:30.519Z,73.51
2022-10-11T09:32:02.563Z,73.42
2022-10-11T09:34:36.266Z,73.16
2022-10-11T09:37:21.650Z,72.42
2022-10-11T09:40:03.858Z,72.37
2022-10-11T09:42:35.850Z,72.25
2022-10-11T09:45:19.149Z,71.38
2022-10-11T09:47:52.653Z,72.10
2022-10-11T09:50:26.233Z,72.05
2022-10-11T09:53:00.522Z,71.88
2022-10-11T09:55:40.706Z,70.94
2022-10-11T09:58:38.690Z,70.48
2022-10-11T10:01:13.886Z,70.96
2022-10-11T10:03:46.987Z,71.25
2022-10-11T10:06:27.528Z,70.87
2022-10-11T10:09:20.793Z,69.35
2022-10-11T10:11:54.264Z,70.59
2022-10-11T10:14:29.128Z,70.55
2022-10-11T10:17:04.082Z,69.81
2022-10-11T10:19:44.926Z,68.86
2022-10-11T10:22:20.855Z,69.32
2022-10-11T10:24:54.075Z,68.39
2022-10-11T10:27:30.256Z,67.98
2022-10-11T10:30:07.549Z,66.65
2022-10-11T10:33:01.229Z,65.33
2022-10-11T10:35:35.158Z,66.39
2022-10-11T10:38:37.388Z,64.69
2022-10-11T10:41:14.071Z,66.46
2022-10-11T10:43:53.566Z,66.01
2022-10-11T10:46:52.526Z,64.92
2022-10-11T10:49:54.123Z,64.80
2022-10-11T10:52:43.666Z,64.64
2022-10-11T10:55:34.688Z,63.11
2022-10-11T10:58:34.852Z,61.62
2022-10-11T11:01:29.021Z,61.82
2022-10-11T11:04:24.905Z,61.32
2022-10-11T11:06:59.820Z,62.82
2022-10-11T11:09:45.939Z,60.07
2022-10-11T11:12:23.690Z,59.89
2022-10-11T11:15:01.349Z,60.88
2022-10-11T11:17:44.890Z,58.89
2022-10-11T11:20:24.740Z,59.04
2022-10-11T11:23:09.182Z,59.27
2022-10-11T11:26:00.306Z,59.41
2022-10-11T11:28:56.858Z,58.59
2022-10-11T11:31:40.683Z,59.11
2022-10-11T11:34:28.023Z,58.58
2022-10-11T11:37:10.563Z,58.87
2022-10-11T11:39:46.333Z,59.57
2022-10-11T11:42:22.331Z,59.43
2022-10-11T11:44:54.520Z,59.92
2022-10-11T11:47:54.087Z,58.15
2022-10-11T11:50:28.559Z,59.66
2022-10-11T11:53:07.570Z,59.07
2022-10-11T11:55:56.079Z,58.07
2022-10-11T11:58:43.226Z,59.02
2022-10-11T12:01:31.107Z,59.58
2022-10-11T12:04:07.449Z,59.44
2022-10-11T12:06:47.893Z,58.69
2022-10-11T12:09:31.232Z,58.98
2022-10-11T12:12:07.197Z,57.99
2022-10-11T12:14:40.863Z,58.78
2022-10-11T12:17:15.743Z,58.75
2022-10-11T12:20:25.138Z,58.05
2022-10-11T12:23:21.992Z,58.82
2022-10-11T12:26:18.973Z,58.40
2022-10-11T12:29:18.730Z,58.38
2022-10-11T12:32:00.216Z,58.86
2022-10-11T12:34:43.518Z,58.42
2022-10-11T12:37:18.759Z,58.69
2022-10-11T12:39:52.380Z,58.52
2022-10-11T12:42:34.867Z,58.44
2022-10-11T12:45:13.181Z,57.73
2022-10-11T12:48:17.107Z,58.69
2022-10-11T12:51:13.677Z,57.11
2022-10-11T12:54:36.144Z,57.64
2022-10-11T12:57:12.095Z,58.58
2022-10-11T12:59:45.436Z,58.68
2022-10-11T13:02:28.820Z,58.49
2022-10-11T13:05:27.421Z,58.88
2022-10-11T13:08:03.126Z,59.19
2022-10-11T13:10:43.527Z,59.47
2022-10-11T13:13:28.939Z,59.37
2022-10-11T13:16:06.499Z,59.17
2022-10-11T13:18:42.060Z,59.22
2022-10-11T13:21:26.960Z,59.29
2022-10-11T13:24:04.448Z,59.18
2022-10-11T13:26:36.800Z,59.68
2022-10-11T13:29:16.941Z,59.65
2022-10-11T13:31:49.442Z,59.83
2022-10-11T13:34:23.485Z,59.83
2022-10-11T13:36:57.678Z,59.68
2022-10-11T13:39:37.142Z,59.30
2022-10-11T13:42:12.173Z,58.98
2022-10-11T13:44:44.908Z,58.78
2022-10-11T13:47:19.132Z,58.75
2022-10-11T13:50:14.897Z,58.03
2022-10-11T13:53:00.596Z,57.75
2022-10-11T13:55:35.183Z,58.54
2022-10-11T13:58:17.782Z,58.58
2022-10-11T14:01:02.061Z,58.26
2022-10-11T14:03:56.786Z,58.65
2022-10-11T14:06:58.087Z,58.21
2022-10-11T14:09:32.317Z,58.28
2022-10-11T14:12:26.031Z,57.65
2022-10-11T14:15:02.053Z,58.19
2022-10-11T14:17:40.662Z,58.26
2022-10-11T14:20:12.926Z,58.52
2022-10-11T14:22:45.157Z,58.69
2022-10-11T14:25:19.949Z,58.82
2022-10-11T14:27:52.248Z,59.04
2022-10-11T14:30:27.378Z,59.02
2022-10-11T14:33:01.198Z,59.22
2022-10-11T14:35:33.058Z,59.41
2022-10-11T14:38:04.906Z,59.37
2022-10-11T14:40:36.698Z,59.76
2022-10-11T14:43:08.596Z,60.02
2022-10-11T14:45:40.526Z,59.87
2022-10-11T14:48:12.420Z,60.13
2022-10-11T14:50:50.385Z,60.47
2022-10-11T14:53:22.290Z,60.68
2022-10-11T14:55:55.342Z,61.16
2022-10-11T14:58:27.503Z,61.81
2022-10-11T15:00:59.337Z,62.35
2022-10-11T15:03:31.456Z,63.15
2022-10-11T15:06:03.648Z,63.61
2022-10-11T15:08:35.725Z,63.77
2022-10-11T15:11:07.643Z,63.69
2022-10-11T15:13:39.531Z,63.82
2022-10-11T15:16:13.446Z,64.37
2022-10-11T15:18:50.860Z,64.68
2022-10-11T15:21:25.262Z,64.98
2022-10-11T15:23:57.063Z,64.77
2022-10-11T15:26:29.526Z,64.90
2022-10-11T15:29:01.784Z,65.18
2022-10-11T15:31:33.725Z,65.51
2022-10-11T15:34:05.632Z,65.77
2022-10-11T15:36:37.664Z,65.85
2022-10-11T15:39:24.453Z,66.21
2022-10-11T15:41:57.329Z,65.85
2022-10-11T15:44:29.403Z,66.18
2022-10-11T15:47:01.267Z,66.22
2022-10-11T15:49:33.389Z,66.46
2022-10-11T15:52:05.528Z,66.61
2022-10-11T15:54:37.687Z,66.67
2022-10-11T15:57:09.549Z,66.71
2022-10-11T15:59:41.370Z,66.72
2022-10-11T16:02:14.990Z,66.69
2022-10-11T16:04:46.849Z,66.67
2022-10-11T16:07:18.912Z,66.66
2022-10-11T16:09:50.785Z,66.75
2022-10-11T16:12:22.548Z,66.86
2022-10-11T16:14:54.456Z,66.37
2022-10-11T16:17:26.326Z,66.44
2022-10-11T16:19:58.170Z,66.41
2022-10-11T16:22:30.238Z,66.50
2022-10-11T16:25:03.903Z,66.67
2022-10-11T16:27:36.173Z,66.56
2022-10-11T16:30:11.849Z,66.19
2022-10-11T16:32:44.868Z,66.04
2022-10-11T16:35:17.151Z,65.77
2022-10-11T16:37:49.285Z,65.99
2022-10-11T16:40:22.068Z,66.02
2022-10-11T16:42:53.921Z,66.03
2022-10-11T16:45:25.923Z,66.26
2022-10-11T16:47:58.542Z,66.35
2022-10-11T16:50:33.314Z,66.47
2022-10-11T16:53:07.587Z,66.46
2022-10-11T16:55:39.741Z,66.67
2022-10-11T16:58:11.617Z,66.61
2022-10-11T17:00:43.740Z,66.79
2022-10-11T17:03:15.705Z,66.69
2022-10-11T17:05:47.514Z,66.77
2022-10-11T17:08:19.540Z,66.99
2022-10-11T17:10:57.835Z,66.96
2022-10-11T17:13:30.172Z,67.13
2022-10-11T17:16:02.067Z,67.17
2022-10-11T17:18:34.048Z,67.32
2022-10-11T17:21:08.171Z,67.38
2022-10-11T17:23:40.382Z,67.40
2022-10-11T17:26:17.130Z,67.55
2022-10-11T17:28:49.386Z,67.67
2022-10-11T17:31:21.418Z,67.79
2022-10-11T17:33:54.776Z,67.87
2022-10-11T17:36:31.989Z,68.35
2022-10-11T17:39:07.256Z,68.29
2022-10-11T17:41:39.514Z,68.36
2022-10-11T17:44:12.627Z,68.58
2022-10-11T17:46:44.655Z,68.63
2022-10-11T17:49:17.617Z,68.71
2022-10-11T17:51:49.505Z,68.98
2022-10-11T17:54:21.630Z,68.85
2022-10-11T17:56:54.533Z,68.89
2022-10-11T17:59:30.637Z,69.23
2022-10-11T18:02:02.754Z,69.02
2022-10-11T18:04:35.284Z,68.86
2022-10-11T18:07:07.586Z,69.05
2022-10-11T18:09:41.050Z,69.18
2022-10-11T18:12:13.149Z,69.19
2022-10-11T18:14:45.042Z,69.08
2022-10-11T18:17:17.542Z,69.08
2022-10-11T18:19:49.307Z,69.11
2022-10-11T18:22:21.364Z,69.21
2022-10-11T18:24:53.417Z,69.00
2022-10-11T18:27:25.406Z,69.01
2022-10-11T18:29:57.551Z,69.25
2022-10-11T18:32:29.494Z,69.18
2022-10-11T18:35:01.336Z,68.96
2022-10-11T18:37:33.292Z,69.18
2022-10-11T18:40:05.690Z,69.17
2022-10-11T18:42:37.582Z,69.18
2022-10-11T18:45:10.421Z,69.39
2022-10-11T18:47:42.295Z,69.34
2022-10-11T18:50:14.353Z,69.29
2022-10-11T18:52:48.445Z,69.46
2022-10-11T18:55:20.615Z,69.54
2022-10-11T18:57:52.490Z,69.62
2022-10-11T19:00:40.039Z,69.79
2022-10-11T19:03:12.874Z,69.98
2022-10-11T19:05:44.745Z,69.96
2022-10-11T19:08:16.667Z,70.07
2022-10-11T19:10:48.568Z,70.27
2022-10-11T19:13:20.763Z,70.36
2022-10-11T19:15:53.120Z,70.33
2022-10-11T19:18:25.619Z,70.38
2022-10-11T19:21:01.445Z,70.85
2022-10-11T19:23:39.563Z,71.03
2022-10-11T19:26:23.886Z,71.09
2022-10-11T19:29:07.477Z,70.92
2022-10-11T19:31:44.895Z,71.13
2022-10-11T19:34:16.855Z,70.96
2022-10-11T19:36:53.251Z,71.19
2022-10-11T19:39:25.495Z,70.98
2022-10-11T19:41:57.442Z,71.05
2022-10-11T19:44:29.294Z,71.18
2022-10-11T19:47:05.299Z,71.40
2022-10-11T19:49:37.415Z,71.41
2022-10-11T19:52:09.529Z,71.33
2022-10-11T19:54:41.452Z,71.58
2022-10-11T19:57:13.261Z,71.56
2022-10-11T19:59:45.703Z,71.66
2022-10-11T20:02:17.636Z,71.88
2022-10-11T20:04:53.332Z,71.84
2022-10-11T20:07:25.295Z,72.10
2022-10-11T20:09:57.106Z,72.35
2022-10-11T20:12:29.461Z,72.32
2022-10-11T20:15:01.506Z,72.25
2022-10-11T20:17:53.666Z,72.45
2022-10-11T20:20:25.665Z,72.78
2022-10-11T20:22:57.849Z,72.92
2022-10-11T20:25:29.712Z,72.97
2022-10-11T20:28:03.102Z,73.12
2022-10-11T20:30:35.003Z,73.08
2022-10-11T20:33:07.751Z,73.26
2022-10-11T20:35:39.775Z,73.33
2022-10-11T20:38:11.582Z,73.34
2022-10-11T20:40:43.385Z,73.51
2022-10-11T20:43:15.540Z,73.46
2022-10-11T20:46:04.373Z,74.01
2022-10-11T20:48:37.208Z,73.61
2022-10-11T20:51:10.626Z,74.00
2022-10-11T20:53:42.698Z,73.97
2022-10-11T20:56:16.677Z,74.03
2022-10-11T20:58:53.216Z,74.13
2022-10-11T21:01:28.156Z,74.15
2022-10-11T21:04:01.203Z,74.23
2022-10-11T21:06:33.591Z,74.18
2022-10-11T21:09:05.442Z,74.04
2022-10-11T21:11:37.330Z,74.09
2022-10-11T21:14:09.204Z,74.11
2022-10-11T21:16:41.049Z,74.33
2022-10-11T21:19:15.046Z,74.41
2022-10-11T21:21:51.164Z,74.27
2022-10-11T21:24:25.537Z,74.59
2022-10-11T21:27:00.666Z,74.42
2022-10-11T21:29:32.833Z,74.42
2022-10-11T21:32:04.680Z,74.48
2022-10-11T21:34:36.509Z,74.44
2022-10-11T21:37:08.456Z,74.54
2022-10-11T21:39:40.258Z,74.48
2022-10-11T21:42:12.089Z,74.63
2022-10-11T21:44:44.528Z,74.64
2022-10-11T21:47:17.474Z,74.82
2022-10-11T21:49:49.365Z,74.75
2022-10-11T21:52:21.360Z,74.94
2022-10-11T21:54:53.232Z,75.11
2022-10-11T21:57:25.250Z,75.12
2022-10-11T21:59:57.042Z,75.11
2022-10-11T22:02:29.123Z,75.22
2022-10-11T22:05:01.096Z,75.16
2022-10-11T22:07:33.137Z,75.16
2022-10-11T22:10:05.326Z,75.35
2022-10-11T22:12:37.835Z,75.40
2022-10-11T22:15:10.161Z,75.41
2022-10-11T22:17:42.136Z,75.65
2022-10-11T22:20:14.555Z,75.34
2022-10-11T22:22:46.459Z,75.59
2022-10-11T22:25:18.844Z,75.50
2022-10-11T22:27:51.208Z,75.52
2022-10-11T22:30:23.094Z,75.64
2022-10-11T22:32:55.111Z,75.65
2022-10-11T22:35:26.955Z,75.69
2022-10-11T22:37:58.809Z,75.92
2022-10-11T22:40:30.720Z,75.93
2022-10-11T22:43:02.673Z,75.88
2022-10-11T22:45:34.657Z,75.99
2022-10-11T22:48:06.544Z,76.00
2022-10-11T22:50:38.986Z,76.15
2022-10-11T22:53:12.777Z,76.52
2022-10-11T22:55:44.849Z,76.76
2022-10-11T22:58:17.088Z,77.12
2022-10-11T23:00:49.108Z,77.17
2022-10-11T23:03:21.099Z,77.28
2022-10-11T23:05:56.806Z,77.43
2022-10-11T23:08:28.589Z,77.14
2022-10-11T23:11:05.258Z,77.22
2022-10-11T23:13:37.088Z,76.89
2022-10-11T23:16:10.970Z,76.84
2022-10-11T23:18:43.039Z,76.82
2022-10-11T23:21:14.941Z,76.92
2022-10-11T23:23:46.789Z,76.93
2022-10-11T23:26:18.636Z,77.16
2022-10-11T23:28:54.131Z,76.93
2022-10-11T23:31:26.372Z,76.91
2022-10-11T23:33:58.496Z,76.96
2022-10-11T23:36:30.378Z,77.15
2022-10-11T23:39:02.523Z,77.20
2022-10-11T23:41:34.331Z,76.92
2022-10-11T23:44:06.307Z,76.99
2022-10-11T23:46:38.142Z,77.49
2022-10-11T23:49:10.046Z,77.52
2022-10-11T23:51:41.980Z,77.59
2022-10-11T23:54:13.776Z,77.57
2022-10-11T23:56:45.873Z,77.58
2022-10-11T23:59:19.483Z,77.85
